Time;durP1;ratioP1;P1;durP2;ratioP2;P2;SDS_P1;SDS_P2;PMS_P1;PMS_P2;Temp;Humidity;BMP_temperature;BMP_pressure;BME280_temperature;BME280_humidity;BME280_pressure;Samples;Min_cycle;Max_cycle;Signal;HPM_P1;HPM_P2
2021/08/21 00:00:15;;;;;;;14.50;13.02;;;15.80;99.90;;;;;;5007937;28;20475;-67
2021/08/21 00:02:41;;;;;;;14.23;12.85;;;15.80;99.90;;;;;;5008700;28;20086;-67
2021/08/21 00:05:08;;;;;;;13.93;12.57;;;15.80;99.90;;;;;;5007752;28;20527;-67
2021/08/21 00:07:33;;;;;;;13.43;12.13;;;15.80;99.90;;;;;;5008844;28;20049;-67
2021/08/21 00:10:00;;;;;;;13.65;11.65;;;15.80;99.90;;;;;;5010843;28;20383;-67
2021/08/21 00:12:25;;;;;;;12.93;11.57;;;15.70;99.90;;;;;;5027589;28;20040;-67
2021/08/21 00:14:52;;;;;;;12.63;11.32;;;15.70;99.90;;;;;;5008528;28;20042;-67
2021/08/21 00:17:18;;;;;;;12.95;11.23;;;15.70;99.90;;;;;;5006511;28;20038;-67
2021/08/21 00:19:45;;;;;;;12.48;11.18;;;15.70;99.90;;;;;;5026075;28;20049;-67
2021/08/21 00:22:13;;;;;;;12.88;11.57;;;15.80;99.90;;;;;;5007350;28;20042;-67
2021/08/21 00:24:39;;;;;;;11.52;10.40;;;15.80;99.90;;;;;;5006740;28;20046;-67
2021/08/21 00:27:05;;;;;;;14.10;12.60;;;15.80;99.90;;;;;;5007369;28;20100;-67
2021/08/21 00:29:32;;;;;;;13.90;12.48;;;15.70;99.90;;;;;;5006560;28;20418;-67
2021/08/21 00:31:58;;;;;;;14.07;12.65;;;15.70;99.90;;;;;;5007060;28;20498;-67
2021/08/21 00:34:23;;;;;;;13.55;12.20;;;15.70;99.90;;;;;;5006355;28;20113;-67
2021/08/21 00:36:49;;;;;;;15.63;11.85;;;15.60;99.90;;;;;;5005885;28;20038;-67
2021/08/21 00:39:15;;;;;;;14.07;12.10;;;15.60;99.90;;;;;;5006711;28;20129;-67
2021/08/21 00:41:41;;;;;;;14.63;13.10;;;15.60;99.90;;;;;;5006841;28;20042;-67
2021/08/21 00:44:08;;;;;;;12.65;11.30;;;15.50;99.90;;;;;;5005976;28;20037;-67
2021/08/21 00:46:57;;;;;;;18.65;14.20;;;15.50;99.90;;;;;;5007791;28;20045;-67
2021/08/21 00:49:22;;;;;;;15.73;14.07;;;15.50;99.90;;;;;;5006028;28;20053;-67
2021/08/21 00:51:48;;;;;;;15.52;13.90;;;15.50;99.90;;;;;;5004445;28;20042;-67
2021/08/21 00:54:14;;;;;;;17.92;15.00;;;15.50;99.90;;;;;;5006285;28;20036;-67
2021/08/21 00:56:40;;;;;;;16.58;12.90;;;15.50;99.90;;;;;;5006552;28;20471;-67
2021/08/21 00:59:07;;;;;;;14.30;11.48;;;15.40;99.90;;;;;;5005486;28;20046;-67
2021/08/21 01:01:33;;;;;;;12.88;11.57;;;15.40;99.90;;;;;;4997706;28;20494;-67
2021/08/21 01:03:58;;;;;;;15.85;11.57;;;15.30;99.90;;;;;;5006570;28;20042;-67
2021/08/21 01:06:24;;;;;;;12.25;11.05;;;15.30;99.90;;;;;;5007706;28;20072;-67
2021/08/21 01:08:50;;;;;;;12.93;11.18;;;15.30;99.90;;;;;;5009533;28;20576;-67
2021/08/21 01:11:15;;;;;;;12.95;11.55;;;15.30;99.90;;;;;;5023144;28;20115;-67
2021/08/21 01:13:41;;;;;;;13.13;11.63;;;15.30;99.90;;;;;;5022775;28;20034;-67
2021/08/21 01:16:06;;;;;;;14.02;12.52;;;15.40;99.90;;;;;;5011184;28;20070;-67
2021/08/21 01:18:33;;;;;;;14.07;12.63;;;15.40;99.90;;;;;;5010524;28;20042;-67
2021/08/21 01:21:01;;;;;;;15.98;14.38;;;15.40;99.90;;;;;;5010582;28;20050;-67
2021/08/21 01:23:27;;;;;;;14.82;13.32;;;15.40;99.90;;;;;;5010129;28;20076;-67
2021/08/21 01:25:52;;;;;;;15.20;13.52;;;15.50;99.90;;;;;;5010847;28;20042;-67
2021/08/21 01:28:19;;;;;;;17.02;13.73;;;15.50;99.90;;;;;;5008165;28;20065;-67
2021/08/21 01:30:45;;;;;;;16.42;14.20;;;15.50;99.90;;;;;;5009810;28;20100;-67
2021/08/21 01:33:10;;;;;;;18.70;16.77;;;15.50;99.90;;;;;;5008307;28;20041;-67
2021/08/21 01:35:36;;;;;;;19.38;17.35;;;15.60;99.90;;;;;;5009173;28;20497;-67
2021/08/21 01:38:02;;;;;;;19.77;16.70;;;15.60;99.90;;;;;;5009626;28;20061;-67
2021/08/21 01:40:30;;;;;;;18.23;15.77;;;15.60;99.90;;;;;;5008701;28;20060;-67
2021/08/21 01:42:57;;;;;;;17.25;15.45;;;15.60;99.90;;;;;;5009008;28;20036;-67
2021/08/21 01:45:22;;;;;;;20.08;17.88;;;15.60;99.90;;;;;;5010151;28;20057;-67
2021/08/21 01:47:48;;;;;;;20.60;17.20;;;15.60;99.90;;;;;;5010606;28;20058;-67
2021/08/21 01:50:17;;;;;;;18.58;16.38;;;15.60;99.90;;;;;;5007435;28;20090;-67
2021/08/21 01:52:47;;;;;;;21.15;16.83;;;15.60;99.90;;;;;;5009854;28;20095;-67
2021/08/21 01:55:14;;;;;;;20.90;17.30;;;15.60;99.90;;;;;;5011130;28;20054;-67
2021/08/21 01:57:41;;;;;;;23.75;19.42;;;15.60;99.90;;;;;;5009740;28;20113;-67
2021/08/21 02:00:09;;;;;;;20.63;18.42;;;15.70;99.90;;;;;;5007431;28;20038;-67
2021/08/21 02:02:35;;;;;;;24.33;18.08;;;15.70;99.90;;;;;;5009990;28;20030;-67
2021/08/21 02:05:01;;;;;;;24.65;20.70;;;15.70;99.90;;;;;;5009027;28;20033;-67
2021/08/21 02:07:26;;;;;;;26.23;21.40;;;15.70;99.90;;;;;;5011008;28;20486;-67
2021/08/21 02:09:52;;;;;;;21.50;19.35;;;15.70;99.90;;;;;;5009251;28;20499;-67
2021/08/21 02:12:18;;;;;;;22.05;19.77;;;15.70;99.90;;;;;;5009391;28;20042;-67
2021/08/21 02:14:44;;;;;;;23.05;20.65;;;15.70;99.90;;;;;;5008958;28;20058;-67
2021/08/21 02:17:11;;;;;;;21.85;19.63;;;15.70;99.90;;;;;;5008862;28;20033;-67
2021/08/21 02:19:36;;;;;;;23.73;21.05;;;15.70;99.90;;;;;;5009221;28;20050;-67
2021/08/21 02:22:04;;;;;;;26.17;21.75;;;15.70;99.90;;;;;;5009960;28;20399;-67
2021/08/21 02:24:33;;;;;;;25.38;22.02;;;15.70;99.90;;;;;;5005122;28;20064;-67
2021/08/21 02:27:01;;;;;;;22.02;19.70;;;15.70;99.90;;;;;;5007155;28;20030;-67
2021/08/21 02:29:28;;;;;;;23.33;20.63;;;15.70;99.90;;;;;;5014840;28;20049;-67
2021/08/21 02:31:55;;;;;;;23.42;20.17;;;15.70;99.90;;;;;;5009370;28;20049;-67
2021/08/21 02:34:22;;;;;;;23.55;21.05;;;15.70;99.90;;;;;;5009202;28;20091;-67
2021/08/21 02:36:48;;;;;;;23.63;21.23;;;15.80;99.90;;;;;;5004324;28;20115;-67
2021/08/21 02:39:14;;;;;;;23.30;20.88;;;15.80;99.90;;;;;;5008762;28;20522;-67
2021/08/21 02:41:40;;;;;;;24.40;21.85;;;15.80;99.90;;;;;;5008853;28;20133;-67
2021/08/21 02:44:06;;;;;;;23.30;20.80;;;15.80;99.90;;;;;;5008994;28;20117;-67
2021/08/21 02:46:32;;;;;;;25.42;22.55;;;15.80;99.90;;;;;;5007176;28;20116;-67
2021/08/21 02:48:58;;;;;;;29.90;24.25;;;15.80;99.90;;;;;;5004471;28;20054;-67
2021/08/21 02:51:24;;;;;;;28.90;23.65;;;15.80;99.90;;;;;;5005434;28;20061;-67
2021/08/21 02:53:49;;;;;;;25.77;22.45;;;15.80;99.90;;;;;;5008376;28;20041;-67
2021/08/21 02:56:15;;;;;;;26.55;22.15;;;15.70;99.90;;;;;;5009299;28;20113;-67
2021/08/21 02:58:40;;;;;;;26.15;23.35;;;15.80;99.90;;;;;;5009222;28;20034;-67
2021/08/21 03:01:06;;;;;;;23.83;21.30;;;15.70;99.90;;;;;;5007852;28;20046;-67
2021/08/21 03:03:32;;;;;;;23.08;20.48;;;15.70;99.90;;;;;;5006786;28;20087;-67
2021/08/21 03:05:58;;;;;;;26.23;22.83;;;15.80;99.90;;;;;;5007742;28;21721;-67
2021/08/21 03:08:23;;;;;;;24.23;21.65;;;15.80;99.90;;;;;;5007670;28;20072;-67
2021/08/21 03:10:49;;;;;;;23.58;21.05;;;15.90;99.90;;;;;;5008259;28;20077;-67
2021/08/21 03:13:15;;;;;;;23.98;21.45;;;15.80;99.90;;;;;;5008705;28;20425;-67
2021/08/21 03:15:41;;;;;;;24.58;21.75;;;15.90;99.90;;;;;;5006417;28;20038;-67
2021/08/21 03:18:06;;;;;;;25.50;21.95;;;15.90;99.90;;;;;;5007884;28;20042;-67
2021/08/21 03:20:34;;;;;;;23.92;21.33;;;15.90;99.90;;;;;;5008833;28;20042;-67
2021/08/21 03:23:00;;;;;;;25.30;22.60;;;15.90;99.90;;;;;;5007487;28;20046;-67
2021/08/21 03:25:26;;;;;;;27.05;22.70;;;15.90;99.90;;;;;;5004494;28;20470;-67
2021/08/21 03:27:51;;;;;;;24.30;21.33;;;16.00;99.90;;;;;;5006639;28;20150;-67
2021/08/21 03:30:18;;;;;;;25.00;21.70;;;15.90;99.90;;;;;;5008065;28;20038;-67
2021/08/21 03:32:43;;;;;;;23.92;21.35;;;16.00;99.90;;;;;;5007814;28;20034;-67
2021/08/21 03:35:09;;;;;;;24.02;21.05;;;16.00;99.90;;;;;;5007007;28;20467;-67
2021/08/21 03:37:35;;;;;;;25.95;23.10;;;16.00;99.90;;;;;;5008248;28;20042;-67
2021/08/21 03:40:01;;;;;;;26.05;22.30;;;16.00;99.90;;;;;;5008594;28;20502;-67
2021/08/21 03:42:26;;;;;;;24.83;22.05;;;16.00;99.90;;;;;;5008985;28;20044;-67
2021/08/21 03:44:52;;;;;;;25.10;22.48;;;16.00;99.90;;;;;;5001670;28;20064;-67
2021/08/21 03:47:18;;;;;;;25.75;23.00;;;16.00;99.90;;;;;;5008421;28;20433;-67
2021/08/21 03:49:44;;;;;;;26.25;23.40;;;16.00;99.90;;;;;;5005853;28;20049;-67
2021/08/21 03:52:09;;;;;;;25.40;21.52;;;16.00;99.90;;;;;;5003768;28;20479;-67
2021/08/21 03:54:35;;;;;;;23.63;21.20;;;15.90;99.90;;;;;;5005186;28;20030;-67
2021/08/21 03:57:00;;;;;;;24.58;21.98;;;16.00;99.90;;;;;;5008512;28;20041;-67
2021/08/21 03:59:26;;;;;;;24.58;22.08;;;15.90;99.90;;;;;;5009988;28;20053;-67
2021/08/21 04:01:52;;;;;;;24.88;22.08;;;15.90;99.90;;;;;;5011287;28;20065;-67
2021/08/21 04:04:18;;;;;;;25.05;22.55;;;15.90;99.90;;;;;;5005548;28;20407;-67
2021/08/21 04:06:43;;;;;;;25.30;22.60;;;15.90;99.90;;;;;;5003270;28;20041;-67
2021/08/21 04:09:09;;;;;;;26.33;23.52;;;15.80;99.90;;;;;;5007485;28;20037;-67
2021/08/21 04:11:34;;;;;;;24.83;22.33;;;15.80;99.90;;;;;;5007283;28;20042;-67
2021/08/21 04:14:00;;;;;;;25.27;22.65;;;15.80;99.90;;;;;;5007815;28;20516;-67
2021/08/21 04:16:26;;;;;;;23.77;21.27;;;15.80;99.90;;;;;;5006717;28;20160;-67
2021/08/21 04:18:52;;;;;;;24.83;22.23;;;15.70;99.90;;;;;;5007818;28;20116;-67
2021/08/21 04:21:18;;;;;;;27.17;22.25;;;15.60;99.90;;;;;;5007418;28;20103;-67
2021/08/21 04:23:44;;;;;;;23.27;20.83;;;15.60;99.90;;;;;;5007925;28;20056;-67
2021/08/21 04:26:10;;;;;;;23.30;20.83;;;15.60;99.90;;;;;;5007167;28;20030;-67
2021/08/21 04:28:35;;;;;;;24.30;21.38;;;15.60;99.90;;;;;;5004864;28;20069;-67
2021/08/21 04:31:01;;;;;;;22.83;20.42;;;15.60;99.90;;;;;;5006347;28;20041;-67
2021/08/21 04:33:27;;;;;;;25.45;21.55;;;15.60;99.90;;;;;;5005443;28;20095;-67
2021/08/21 04:35:53;;;;;;;23.50;20.95;;;15.60;99.90;;;;;;5004764;28;20038;-67
2021/08/21 04:38:19;;;;;;;24.63;22.15;;;15.50;99.90;;;;;;5005991;28;20035;-67
2021/08/21 04:40:46;;;;;;;25.83;22.23;;;15.50;99.90;;;;;;5008271;28;20046;-67
2021/08/21 04:43:14;;;;;;;24.60;22.02;;;15.50;99.90;;;;;;5012401;28;20048;-67
2021/08/21 04:45:40;;;;;;;23.40;21.10;;;15.60;99.90;;;;;;5013259;28;20103;-67
2021/08/21 04:48:07;;;;;;;26.52;22.52;;;15.60;99.90;;;;;;5009795;28;20069;-67
2021/08/21 04:50:35;;;;;;;24.13;21.52;;;15.60;99.90;;;;;;5009319;28;20054;-67
2021/08/21 04:53:05;;;;;;;24.08;21.58;;;15.60;99.90;;;;;;5010023;28;20091;-67
2021/08/21 04:55:31;;;;;;;23.98;21.17;;;15.60;99.90;;;;;;4995284;28;20086;-67
2021/08/21 04:57:57;;;;;;;23.98;20.67;;;15.60;99.90;;;;;;5007350;28;20409;-67
2021/08/21 05:00:24;;;;;;;24.85;21.60;;;15.60;99.90;;;;;;5012797;28;20040;-67
2021/08/21 05:02:51;;;;;;;26.83;22.70;;;15.70;99.90;;;;;;5012049;28;20445;-67
2021/08/21 05:05:17;;;;;;;24.67;21.80;;;15.70;99.90;;;;;;5013204;28;20029;-67
2021/08/21 05:07:47;;;;;;;25.42;21.23;;;15.70;99.90;;;;;;5013175;28;20045;-67
2021/08/21 05:10:13;;;;;;;24.67;21.80;;;15.80;99.90;;;;;;5014746;28;20087;-67
2021/08/21 05:12:39;;;;;;;24.63;22.10;;;15.80;99.90;;;;;;5009298;28;20042;-67
2021/08/21 05:15:07;;;;;;;25.92;22.33;;;15.80;99.90;;;;;;5014230;28;20433;-67
2021/08/21 05:17:33;;;;;;;25.17;22.50;;;15.90;99.90;;;;;;5012608;28;20042;-67
2021/08/21 05:20:04;;;;;;;22.90;20.42;;;15.90;99.90;;;;;;5013415;28;20032;-67
2021/08/21 05:23:30;;;;;;;24.42;21.23;;;15.90;99.90;;;;;;5006988;28;20825;-67
2021/08/21 05:25:25;;;;;;;23.35;20.88;;;15.90;99.90;;;;;;5018064;28;20046;-67
2021/08/21 05:27:51;;;;;;;24.55;21.95;;;15.90;99.90;;;;;;5031691;28;20115;-67
2021/08/21 05:30:16;;;;;;;24.17;21.73;;;16.00;99.90;;;;;;5014476;28;20044;-67
2021/08/21 05:32:42;;;;;;;24.48;21.73;;;16.10;99.90;;;;;;5013259;28;20034;-67
2021/08/21 05:35:08;;;;;;;23.42;20.25;;;16.10;99.90;;;;;;5012794;28;20061;-67
2021/08/21 05:37:34;;;;;;;24.38;20.88;;;16.20;99.90;;;;;;5010098;28;20120;-67
2021/08/21 05:40:03;;;;;;;23.42;20.17;;;16.30;99.90;;;;;;5011342;28;20046;-67
2021/08/21 05:42:29;;;;;;;22.98;20.48;;;16.40;99.90;;;;;;5012528;28;20041;-67
2021/08/21 05:44:54;;;;;;;23.77;20.77;;;16.50;99.90;;;;;;5011318;28;20083;-67
2021/08/21 05:47:20;;;;;;;20.73;18.63;;;16.50;99.90;;;;;;5009430;28;20054;-67
2021/08/21 05:49:46;;;;;;;23.13;20.55;;;16.60;99.90;;;;;;5014184;28;20054;-67
2021/08/21 05:52:11;;;;;;;23.27;20.77;;;16.70;99.90;;;;;;5015963;28;20041;-67
2021/08/21 05:54:37;;;;;;;22.45;20.15;;;16.80;99.90;;;;;;5010825;28;20113;-67
2021/08/21 05:57:03;;;;;;;22.73;20.38;;;16.90;99.90;;;;;;5008271;28;20130;-67
2021/08/21 05:59:31;;;;;;;22.58;20.08;;;17.00;99.90;;;;;;5005329;28;20081;-67
2021/08/21 06:01:57;;;;;;;22.92;20.60;;;17.10;99.90;;;;;;5000728;28;20038;-67
2021/08/21 06:04:24;;;;;;;22.98;20.67;;;17.10;99.90;;;;;;4998325;28;20687;-67
2021/08/21 06:06:49;;;;;;;23.58;20.83;;;17.20;99.90;;;;;;5006921;28;20053;-67
2021/08/21 06:09:19;;;;;;;22.63;20.38;;;17.30;99.90;;;;;;4993054;28;20401;-72
2021/08/21 06:11:45;;;;;;;21.30;19.20;;;17.30;99.90;;;;;;5007087;28;20038;-71
2021/08/21 06:14:11;;;;;;;23.35;20.98;;;17.40;99.90;;;;;;5008421;28;20046;-72
2021/08/21 06:16:37;;;;;;;25.90;22.75;;;17.50;99.90;;;;;;5009297;28;20038;-71
2021/08/21 06:19:02;;;;;;;25.95;23.30;;;17.60;99.90;;;;;;5007969;28;20092;-72
2021/08/21 06:21:28;;;;;;;25.80;23.20;;;17.70;99.90;;;;;;5005298;28;20159;-71
2021/08/21 06:23:53;;;;;;;26.58;23.90;;;17.70;99.90;;;;;;5007891;28;20038;-71
2021/08/21 06:26:20;;;;;;;25.50;22.80;;;17.70;99.90;;;;;;5008559;28;20042;-71
2021/08/21 06:28:45;;;;;;;27.77;24.88;;;17.60;99.90;;;;;;5005850;28;20038;-72
2021/08/21 06:31:11;;;;;;;28.95;25.65;;;17.60;99.90;;;;;;5009259;28;20034;-72
2021/08/21 06:33:36;;;;;;;35.25;27.58;;;17.60;99.90;;;;;;5005533;28;20502;-72
2021/08/21 06:36:02;;;;;;;31.92;26.85;;;17.50;99.90;;;;;;5007277;28;20044;-72
2021/08/21 06:38:28;;;;;;;28.60;25.55;;;17.50;99.90;;;;;;5013588;28;20052;-72
2021/08/21 06:40:53;;;;;;;30.50;27.25;;;17.60;99.90;;;;;;5015212;28;20038;-72
2021/08/21 06:43:19;;;;;;;37.30;28.23;;;17.80;99.90;;;;;;5051754;28;20038;-71
2021/08/21 06:45:44;;;;;;;57.63;28.65;;;17.90;99.90;;;;;;5010010;28;20061;-71
2021/08/21 06:48:10;;;;;;;33.08;26.98;;;17.80;99.90;;;;;;5010744;28;20050;-71
2021/08/21 06:50:36;;;;;;;31.10;27.92;;;17.90;99.90;;;;;;5008007;28;20041;-71
2021/08/21 06:53:03;;;;;;;31.10;27.65;;;18.00;99.90;;;;;;4990565;28;20122;-72
2021/08/21 06:55:30;;;;;;;25.38;22.88;;;18.10;99.90;;;;;;4997608;28;20457;-71
2021/08/21 06:57:55;;;;;;;25.27;22.40;;;18.20;99.90;;;;;;5006627;28;20121;-71
2021/08/21 07:00:21;;;;;;;24.33;21.13;;;18.30;99.90;;;;;;5009156;28;20112;-71
2021/08/21 07:02:47;;;;;;;48.13;22.88;;;18.30;99.90;;;;;;5041474;23;20140;-63
2021/08/21 07:05:13;;;;;;;23.50;20.52;;;18.30;99.90;;;;;;5027582;28;20117;-63
2021/08/21 07:07:38;;;;;;;25.27;22.92;;;18.30;99.90;;;;;;5023377;28;20049;-64
2021/08/21 07:10:05;;;;;;;24.88;22.58;;;18.40;99.90;;;;;;5027598;28;20068;-64
2021/08/21 07:12:31;;;;;;;25.05;22.40;;;18.50;99.90;;;;;;5028916;28;20033;-64
2021/08/21 07:14:57;;;;;;;23.58;21.35;;;18.50;99.90;;;;;;5027175;28;20048;-64
2021/08/21 07:17:22;;;;;;;21.13;19.17;;;18.50;99.90;;;;;;5025207;28;20042;-64
2021/08/21 07:19:48;;;;;;;21.95;19.85;;;18.70;99.90;;;;;;5017539;28;20060;-63
2021/08/21 07:22:14;;;;;;;22.85;20.55;;;18.80;99.90;;;;;;5027695;28;20040;-63
2021/08/21 07:24:40;;;;;;;22.98;20.65;;;19.00;99.90;;;;;;5024480;28;20106;-63
2021/08/21 07:27:06;;;;;;;22.33;20.33;;;19.00;99.90;;;;;;5024264;28;20095;-63
2021/08/21 07:29:32;;;;;;;20.40;18.58;;;19.10;99.90;;;;;;5025169;28;20041;-63
2021/08/21 07:31:58;;;;;;;23.35;21.23;;;19.20;99.90;;;;;;5018259;28;20386;-63
2021/08/21 07:34:24;;;;;;;23.30;20.92;;;19.50;99.90;;;;;;5023713;28;20037;-63
2021/08/21 07:36:50;;;;;;;20.85;18.95;;;19.50;99.90;;;;;;5025591;28;20049;-63
2021/08/21 07:39:16;;;;;;;21.83;19.80;;;19.80;99.90;;;;;;5020963;28;20044;-63
2021/08/21 07:41:42;;;;;;;22.45;20.35;;;19.90;99.90;;;;;;5025718;28;20046;-64
2021/08/21 07:44:07;;;;;;;22.27;20.27;;;20.00;99.90;;;;;;5028335;28;21900;-64
2021/08/21 07:46:33;;;;;;;24.70;22.40;;;20.20;99.90;;;;;;5066222;28;20390;-64
2021/08/21 07:48:59;;;;;;;24.60;22.40;;;20.10;99.90;;;;;;5013895;28;20365;-64
2021/08/21 07:51:25;;;;;;;21.08;19.17;;;20.20;99.90;;;;;;5019784;28;20137;-64
2021/08/21 07:53:50;;;;;;;23.20;21.08;;;20.60;99.90;;;;;;5023901;28;20048;-64
2021/08/21 07:56:16;;;;;;;22.63;20.55;;;20.80;99.90;;;;;;5028228;28;20041;-64
2021/08/21 07:58:41;;;;;;;21.38;19.38;;;20.90;99.90;;;;;;5014137;28;20068;-64
2021/08/21 08:01:07;;;;;;;20.50;18.60;;;21.00;99.90;;;;;;5025118;28;20041;-64
2021/08/21 08:03:33;;;;;;;19.15;17.45;;;21.10;99.90;;;;;;5019212;28;20110;-64
2021/08/21 08:05:59;;;;;;;21.73;19.80;;;21.30;99.90;;;;;;5023484;28;20045;-64
2021/08/21 08:08:25;;;;;;;22.17;20.13;;;21.40;99.90;;;;;;5023453;28;20116;-64
2021/08/21 08:10:54;;;;;;;23.10;20.92;;;21.50;99.90;;;;;;5023705;28;20045;-64
2021/08/21 08:13:21;;;;;;;22.90;20.80;;;21.60;99.90;;;;;;5027726;28;20038;-64
2021/08/21 08:15:47;;;;;;;22.42;20.02;;;21.50;99.90;;;;;;5026390;28;20048;-64
2021/08/21 08:18:13;;;;;;;20.30;18.42;;;21.50;99.90;;;;;;5017227;28;20053;-64
2021/08/21 08:20:39;;;;;;;22.02;19.92;;;21.60;99.90;;;;;;5026978;28;20038;-64
2021/08/21 08:23:05;;;;;;;20.55;18.65;;;21.80;99.90;;;;;;5024528;28;20037;-64
2021/08/21 08:25:31;;;;;;;19.98;18.13;;;21.90;99.90;;;;;;5012716;28;20049;-64
2021/08/21 08:27:57;;;;;;;19.67;17.85;;;22.00;99.90;;;;;;5027812;28;20071;-64
2021/08/21 08:30:23;;;;;;;20.52;18.50;;;22.10;99.90;;;;;;5028488;28;20037;-64
2021/08/21 08:32:49;;;;;;;21.25;19.27;;;22.20;99.90;;;;;;5027040;28;20162;-64
2021/08/21 08:35:15;;;;;;;19.45;17.58;;;22.20;99.90;;;;;;5028675;28;20038;-64
2021/08/21 08:37:41;;;;;;;17.92;16.02;;;22.20;99.90;;;;;;5028440;28;20042;-64
2021/08/21 08:40:09;;;;;;;18.13;16.52;;;22.20;99.90;;;;;;5026918;28;20033;-64
2021/08/21 08:42:39;;;;;;;16.45;14.85;;;22.30;99.90;;;;;;5055619;28;20116;-64
2021/08/21 08:45:06;;;;;;;17.48;15.82;;;22.30;99.90;;;;;;5019087;28;20121;-64
2021/08/21 08:47:33;;;;;;;17.17;15.63;;;22.40;99.90;;;;;;5020472;28;20068;-65
2021/08/21 08:50:03;;;;;;;17.85;16.15;;;22.30;99.90;;;;;;5026381;28;20105;-65
2021/08/21 08:52:30;;;;;;;17.15;15.50;;;22.30;99.90;;;;;;5012256;28;20034;-64
2021/08/21 08:54:56;;;;;;;16.75;15.15;;;22.30;99.90;;;;;;5023540;28;20029;-64
2021/08/21 08:57:42;;;;;;;17.13;15.43;;;22.50;99.90;;;;;;5022871;28;20054;-64
2021/08/21 09:00:11;;;;;;;13.70;12.40;;;22.70;99.90;;;;;;5017776;28;20053;-64
2021/08/21 09:02:48;;;;;;;15.82;14.38;;;22.90;99.90;;;;;;5021651;28;20398;-64
2021/08/21 09:05:16;;;;;;;17.83;16.13;;;23.10;99.90;;;;;;5022699;28;20136;-64
2021/08/21 09:07:57;;;;;;;16.75;15.20;;;23.10;99.90;;;;;;5020103;28;20073;-65
2021/08/21 09:10:28;;;;;;;15.87;14.40;;;23.20;99.90;;;;;;5028174;28;20046;-65
2021/08/21 09:13:15;;;;;;;15.40;13.90;;;23.30;99.90;;;;;;5023487;28;20471;-65
2021/08/21 09:15:46;;;;;;;17.10;15.32;;;23.40;99.90;;;;;;5022097;28;20034;-65
2021/08/21 09:18:17;;;;;;;15.95;14.20;;;23.30;99.90;;;;;;5021127;28;20382;-65
2021/08/21 09:20:49;;;;;;;15.95;14.55;;;23.20;99.90;;;;;;5027291;28;20037;-65
2021/08/21 09:23:27;;;;;;;14.65;13.32;;;23.20;99.90;;;;;;5027951;28;20049;-64
2021/08/21 09:26:30;;;;;;;13.23;11.93;;;23.10;99.90;;;;;;5027645;28;20033;-64
2021/08/21 09:28:59;;;;;;;13.00;11.70;;;23.10;99.90;;;;;;5024193;28;20359;-64
2021/08/21 09:31:30;;;;;;;13.20;11.98;;;22.90;99.90;;;;;;5019803;28;20112;-64
2021/08/21 09:34:04;;;;;;;11.73;10.65;;;22.90;99.90;;;;;;5056858;28;20092;-64
2021/08/21 09:36:38;;;;;;;11.85;10.68;;;22.90;99.90;;;;;;5025601;28;20112;-64
2021/08/21 09:39:06;;;;;;;11.77;10.50;;;23.00;99.90;;;;;;5023582;28;20030;-64
2021/08/21 09:41:51;;;;;;;11.70;10.70;;;23.00;99.90;;;;;;5014099;28;21198;-64
2021/08/21 09:44:24;;;;;;;11.63;10.52;;;23.00;99.90;;;;;;5027053;28;20033;-64
2021/08/21 09:47:23;;;;;;;11.85;10.75;;;23.00;99.90;;;;;;5026831;28;20053;-64
2021/08/21 09:49:50;;;;;;;12.00;10.70;;;23.10;99.90;;;;;;5022116;28;20772;-64
2021/08/21 09:52:17;;;;;;;11.02;9.98;;;23.30;99.90;;;;;;5026066;28;20037;-64
2021/08/21 09:55:01;;;;;;;10.38;9.48;;;23.40;99.90;;;;;;5021498;28;20041;-64
2021/08/21 09:57:27;;;;;;;11.43;10.40;;;23.60;99.90;;;;;;5026195;28;20519;-65
2021/08/21 09:59:57;;;;;;;11.93;10.82;;;23.80;99.90;;;;;;5022942;28;20087;-65
2021/08/21 10:02:24;;;;;;;11.40;10.30;;;24.00;99.90;;;;;;5021402;28;20133;-65
2021/08/21 10:04:51;;;;;;;12.77;11.50;;;24.10;99.90;;;;;;5016416;28;20038;-65
2021/08/21 10:07:20;;;;;;;12.23;11.20;;;24.20;99.90;;;;;;5023775;28;20045;-65
2021/08/21 10:09:48;;;;;;;10.18;9.18;;;24.40;99.90;;;;;;5010913;28;20041;-65
2021/08/21 10:12:15;;;;;;;9.23;8.43;;;24.40;99.60;;;;;;5020800;28;20041;-65
2021/08/21 10:14:44;;;;;;;9.02;8.23;;;24.20;99.90;;;;;;5029526;28;20094;-64
2021/08/21 10:17:10;;;;;;;9.15;8.30;;;24.20;99.90;;;;;;5030114;28;20501;-65
2021/08/21 10:19:40;;;;;;;11.15;10.05;;;24.20;99.80;;;;;;5011562;28;20042;-65
2021/08/21 10:22:09;;;;;;;10.33;9.43;;;24.10;99.60;;;;;;5029699;28;20485;-65
2021/08/21 10:24:40;;;;;;;9.55;8.75;;;24.20;99.90;;;;;;5030503;28;20064;-65
2021/08/21 10:27:19;;;;;;;9.23;8.32;;;24.10;99.90;;;;;;5015979;28;20095;-65
2021/08/21 10:30:04;;;;;;;9.00;8.02;;;24.10;99.90;;;;;;5010692;28;20510;-65
2021/08/21 10:32:35;;;;;;;8.50;7.78;;;24.20;99.90;;;;;;5029592;28;20091;-65
2021/08/21 10:35:01;;;;;;;9.27;8.40;;;24.20;99.10;;;;;;5029516;28;20483;-65
2021/08/21 10:37:35;;;;;;;7.25;6.65;;;24.30;99.90;;;;;;5029617;28;20429;-65
2021/08/21 10:40:27;;;;;;;6.20;5.65;;;24.40;99.90;;;;;;5029233;28;20059;-64
2021/08/21 10:42:54;;;;;;;5.60;5.10;;;24.60;99.10;;;;;;5027393;28;20029;-64
2021/08/21 10:45:42;;;;;;;7.63;6.93;;;24.70;98.50;;;;;;5026820;28;20109;-64
2021/08/21 10:48:21;;;;;;;6.72;6.20;;;24.80;97.70;;;;;;5010652;28;20034;-65
2021/08/21 10:50:49;;;;;;;6.65;6.15;;;24.80;97.80;;;;;;5024183;28;20030;-64
2021/08/21 10:53:21;;;;;;;6.82;5.78;;;24.60;96.60;;;;;;5028196;28;20042;-64
2021/08/21 10:55:48;;;;;;;4.97;4.25;;;24.60;97.50;;;;;;5029873;28;20045;-68
2021/08/21 10:58:35;;;;;;;4.05;3.65;;;24.60;97.10;;;;;;5031578;28;20881;-65
2021/08/21 11:01:09;;;;;;;4.00;3.70;;;24.70;97.10;;;;;;5024472;28;20046;-64
2021/08/21 11:03:34;;;;;;;5.10;4.70;;;24.90;97.20;;;;;;5027916;28;20053;-64
2021/08/21 11:06:07;;;;;;;4.55;4.10;;;24.90;96.60;;;;;;5027034;28;20068;-64
2021/08/21 11:08:36;;;;;;;4.75;4.35;;;25.10;96.50;;;;;;5029696;28;20047;-64
2021/08/21 11:11:12;;;;;;;5.05;4.55;;;25.10;95.30;;;;;;5026457;28;20052;-64
2021/08/21 11:14:00;;;;;;;4.53;4.13;;;25.10;96.40;;;;;;5023556;28;20034;-64
2021/08/21 11:16:49;;;;;;;3.90;3.60;;;25.10;97.40;;;;;;5029267;28;20045;-64
2021/08/21 11:19:39;;;;;;;4.30;4.00;;;25.20;96.00;;;;;;5017401;28;20052;-64
2021/08/21 11:22:21;;;;;;;3.78;3.47;;;25.30;96.30;;;;;;5013398;28;20123;-64
2021/08/21 11:24:53;;;;;;;4.05;3.75;;;25.20;94.10;;;;;;5014604;28;20077;-64
2021/08/21 11:27:30;;;;;;;;;;;25.30;94.80;;;;;;5015129;28;20098;-64
2021/08/21 11:30:06;;;;;;;6.90;5.90;;;25.10;95.10;;;;;;5010341;28;19981;-64
2021/08/21 11:33:01;;;;;;;7.43;6.72;;;25.30;96.70;;;;;;5028325;28;20052;-64
2021/08/21 11:35:51;;;;;;;7.85;7.15;;;25.20;94.10;;;;;;5025082;28;20029;-65
2021/08/21 11:38:29;;;;;;;8.10;7.40;;;25.10;94.60;;;;;;5008872;28;20098;-65
2021/08/21 11:40:57;;;;;;;5.32;4.82;;;25.10;95.30;;;;;;5017570;28;20091;-66
2021/08/21 11:43:32;;;;;;;2.90;2.70;;;25.30;96.20;;;;;;5026338;28;20048;-65
2021/08/21 11:46:00;;;;;;;3.00;2.72;;;25.50;94.40;;;;;;5015693;28;20112;-65
2021/08/21 11:48:31;;;;;;;3.30;2.70;;;25.70;94.70;;;;;;5021041;28;20049;-65
2021/08/21 11:50:57;;;;;;;2.40;2.20;;;25.50;94.70;;;;;;5026055;28;20037;-65
2021/08/21 11:53:37;;;;;;;3.03;2.47;;;25.40;94.20;;;;;;5028737;28;20052;-65
2021/08/21 11:56:03;;;;;;;3.65;3.35;;;25.30;94.20;;;;;;5018043;28;20049;-64
2021/08/21 11:58:34;;;;;;;4.55;4.03;;;25.20;94.40;;;;;;5023307;28;20033;-64
2021/08/21 12:01:11;;;;;;;5.88;5.05;;;25.30;94.60;;;;;;5017991;28;20042;-64
2021/08/21 12:06:28;;;;;;;6.95;6.35;;;25.40;95.60;;;;;;5022482;28;20041;-64
2021/08/21 12:09:14;;;;;;;6.72;6.03;;;25.30;95.20;;;;;;5022043;28;20114;-64
2021/08/21 12:11:42;;;;;;;6.05;5.53;;;25.30;94.30;;;;;;5024307;28;20037;-64
2021/08/21 12:14:08;;;;;;;5.57;5.07;;;25.50;95.90;;;;;;5027502;28;20078;-64
2021/08/21 12:16:35;;;;;;;4.75;4.18;;;25.50;94.40;;;;;;5027466;28;20038;-64
2021/08/21 12:19:01;;;;;;;3.95;3.65;;;25.60;94.70;;;;;;5016270;28;20038;-64
2021/08/21 12:21:28;;;;;;;3.05;2.30;;;25.80;93.00;;;;;;5021808;28;20392;-66
2021/08/21 12:23:54;;;;;;;2.50;2.30;;;25.90;90.00;;;;;;5016201;28;20041;-64
2021/08/21 12:26:32;;;;;;;4.60;4.20;;;26.20;93.70;;;;;;5023719;28;20033;-64
2021/08/21 12:28:57;;;;;;;5.30;4.80;;;26.40;92.80;;;;;;5028588;28;20475;-64
2021/08/21 12:31:36;;;;;;;6.00;5.50;;;26.30;92.90;;;;;;5023765;28;20085;-64
2021/08/21 12:34:03;;;;;;;4.97;4.57;;;26.20;93.00;;;;;;5014084;28;20034;-64
2021/08/21 12:36:29;;;;;;;4.68;4.25;;;26.00;93.30;;;;;;5018784;28;20464;-64
2021/08/21 12:39:08;;;;;;;4.80;4.40;;;25.80;93.60;;;;;;5016642;28;20107;-65